Rumes, Belgium
Current Conditions -  °F | °C
As of 2:30 AM on Thursday 27 Nov 2014 (Local Time) from LFQQ Reporting Station
Haze Haze  
Wind Chill: 50°   Ceiling: 200
Heat Index: 50°   Visibility: 1.3mi
Dew Point: 50°   Wind: 6mph
Humidity: 100%   Direction: 160°SSE
Pressure: 29.77"   Gusts: NA
Location:  50.55°N, 3.31°E
Report Text: LFQQ 270130Z AUTO 16005KT 2100 BR OVC002 10/10 Q1008
Loading
Personal Weather Stations






























Interactive Weather Map New forecast layout! Learn more

10-Day Weather Forecast

Advertisements
Track Severe Weather on mobile